Private Wetterstation Sandau
Wetterdaten: Donnerstag, 17.05.2012
Datum Zeit Temp. A. Feuchte A. Luftdruck Regen Wind Richtung Richtung Taupunkt Windchill
17.05.2012 00:01 6,5 C 69 % 1021,6 hPa 0,0 l/m 4,0 km/h (1 Bft) W 270 1,2 C 6,5 C
17.05.2012 00:06 6,5 C 70 % 1021,7 hPa 0,0 l/m 12,2 km/h (2 Bft) W 270 1,4 C 4,0 C
17.05.2012 00:11 6,5 C 70 % 1021,6 hPa 0,0 l/m 5,8 km/h (2 Bft) W 270 1,4 C 5,5 C
17.05.2012 00:16 6,4 C 70 % 1021,7 hPa 0,0 l/m 11,5 km/h (2 Bft) NW 315 1,3 C 4,0 C
17.05.2012 00:21 6,4 C 70 % 1021,8 hPa 0,0 l/m 12,2 km/h (2 Bft) W-NW 292 1,3 C 3,9 C
17.05.2012 00:26 6,4 C 70 % 1021,7 hPa 0,0 l/m 6,1 km/h (2 Bft) W-NW 292 1,3 C 5,3 C
17.05.2012 00:31 6,4 C 71 % 1021,9 hPa 0,0 l/m 5,8 km/h (2 Bft) W 270 1,5 C 5,4 C
17.05.2012 00:36 6,4 C 71 % 1021,9 hPa 0,0 l/m 5,8 km/h (2 Bft) W-NW 292 1,5 C 5,4 C
17.05.2012 00:41 6,3 C 71 % 1021,8 hPa 0,0 l/m 4,7 km/h (1 Bft) W-NW 292 1,4 C 5,7 C
17.05.2012 00:46 6,2 C 72 % 1021,8 hPa 0,0 l/m 9,7 km/h (2 Bft) W-NW 292 1,5 C 4,2 C
17.05.2012 00:51 6,1 C 72 % 1021,8 hPa 0,0 l/m 10,4 km/h (2 Bft) W-SW 247 1,4 C 3,9 C
17.05.2012 00:56 6,0 C 72 % 1021,9 hPa 0,0 l/m 6,1 km/h (2 Bft) W-NW 292 1,3 C 4,8 C
17.05.2012 01:01 5,9 C 72 % 1021,9 hPa 0,0 l/m 5,8 km/h (2 Bft) W-NW 292 1,2 C 4,8 C
17.05.2012 01:06 5,9 C 73 % 1021,8 hPa 0,0 l/m 6,8 km/h (2 Bft) W-SW 247 1,4 C 4,5 C
17.05.2012 01:11 5,8 C 73 % 1021,9 hPa 0,0 l/m 7,2 km/h (2 Bft) W 270 1,3 C 4,3 C
17.05.2012 01:16 5,9 C 73 % 1021,9 hPa 0,0 l/m 2,9 km/h (1 Bft) W-SW 247 1,4 C 5,9 C
17.05.2012 01:21 5,9 C 73 % 1021,8 hPa 0,0 l/m 4,0 km/h (1 Bft) W 270 1,4 C 5,9 C
17.05.2012 01:26 5,8 C 73 % 1021,9 hPa 0,0 l/m 7,6 km/h (2 Bft) SW 225 1,3 C 4,2 C
17.05.2012 01:31 5,8 C 73 % 1022,0 hPa 0,0 l/m 7,6 km/h (2 Bft) W 270 1,3 C 4,2 C
17.05.2012 01:36 5,8 C 74 % 1021,9 hPa 0,0 l/m 4,7 km/h (1 Bft) W 270 1,5 C 5,1 C
17.05.2012 01:41 5,8 C 74 % 1021,9 hPa 0,0 l/m 6,1 km/h (2 Bft) W-SW 247 1,5 C 4,6 C
17.05.2012 01:46 5,6 C 74 % 1021,8 hPa 0,0 l/m 13,3 km/h (3 Bft) W-SW 247 1,3 C 2,8 C
17.05.2012 01:51 5,6 C 74 % 1021,8 hPa 0,0 l/m 10,4 km/h (2 Bft) W-SW 247 1,3 C 3,3 C
17.05.2012 01:56 5,6 C 74 % 1021,9 hPa 0,0 l/m 6,1 km/h (2 Bft) W-SW 247 1,3 C 4,4 C
17.05.2012 02:01 5,6 C 74 % 1022,0 hPa 0,0 l/m 3,6 km/h (1 Bft) W 270 1,3 C 5,6 C
17.05.2012 02:06 5,6 C 74 % 1022,1 hPa 0,0 l/m 13,0 km/h (3 Bft) W 270 1,3 C 2,8 C
17.05.2012 02:11 5,5 C 74 % 1022,0 hPa 0,0 l/m 16,9 km/h (3 Bft) W 270 1,2 C 2,1 C
17.05.2012 02:16 5,5 C 74 % 1022,0 hPa 0,0 l/m 10,1 km/h (2 Bft) W-SW 247 1,2 C 3,2 C
17.05.2012 02:21 5,4 C 75 % 1022,0 hPa 0,0 l/m 12,2 km/h (2 Bft) W-SW 247 1,3 C 2,7 C
17.05.2012 02:26 5,4 C 75 % 1022,0 hPa 0,0 l/m 11,5 km/h (2 Bft) W-SW 247 1,3 C 2,8 C
17.05.2012 02:31 5,3 C 75 % 1021,9 hPa 0,0 l/m 13,7 km/h (3 Bft) W-SW 247 1,2 C 2,3 C
17.05.2012 02:36 5,3 C 75 % 1021,7 hPa 0,0 l/m 11,5 km/h (2 Bft) W-SW 247 1,2 C 2,7 C
17.05.2012 02:41 5,2 C 75 % 1021,9 hPa 0,0 l/m 12,2 km/h (2 Bft) W 270 1,1 C 2,5 C
17.05.2012 02:46 5,2 C 75 % 1021,8 hPa 0,0 l/m 18,4 km/h (3 Bft) W-SW 247 1,1 C 1,5 C
17.05.2012 02:51 5,1 C 76 % 1022,0 hPa 0,0 l/m 5,8 km/h (2 Bft) S 180 1,2 C 3,9 C
17.05.2012 02:56 5,1 C 76 % 1022,0 hPa 0,0 l/m 9,7 km/h (2 Bft) W 270 1,2 C 2,8 C
17.05.2012 03:01 5,1 C 76 % 1022,0 hPa 0,0 l/m 15,5 km/h (3 Bft) W 270 1,2 C 1,8 C
17.05.2012 03:06 5,1 C 76 % 1022,0 hPa 0,0 l/m 10,1 km/h (2 Bft) W-SW 247 1,2 C 2,8 C
17.05.2012 03:11 5,0 C 76 % 1022,1 hPa 0,0 l/m 8,6 km/h (2 Bft) W-NW 292 1,1 C 3,0 C
17.05.2012 03:16 4,9 C 76 % 1022,1 hPa 0,0 l/m 9,4 km/h (2 Bft) W-SW 247 1,0 C 2,7 C
17.05.2012 03:21 4,9 C 76 % 1022,2 hPa 0,0 l/m 5,8 km/h (2 Bft) W-SW 247 1,0 C 3,7 C
17.05.2012 03:26 4,9 C 76 % 1022,3 hPa 0,0 l/m 11,9 km/h (2 Bft) W-SW 247 1,0 C 2,2 C
17.05.2012 03:31 4,8 C 77 % 1022,2 hPa 0,0 l/m 11,9 km/h (2 Bft) W 270 1,1 C 2,0 C
17.05.2012 03:36 4,8 C 77 % 1022,3 hPa 0,0 l/m 12,2 km/h (2 Bft) W-SW 247 1,1 C 2,0 C
17.05.2012 03:41 4,7 C 77 % 1022,2 hPa 0,0 l/m 10,4 km/h (2 Bft) NW 315 1,0 C 2,2 C
17.05.2012 03:46 4,6 C 77 % 1022,1 hPa 0,0 l/m 15,8 km/h (3 Bft) W 270 0,9 C 1,1 C
17.05.2012 03:51 4,6 C 77 % 1022,1 hPa 0,0 l/m 5,8 km/h (2 Bft) SW 225 0,9 C 3,3 C
17.05.2012 03:56 4,6 C 77 % 1022,2 hPa 0,0 l/m 6,1 km/h (2 Bft) W 270 0,9 C 3,2 C
17.05.2012 04:01 4,6 C 78 % 1022,2 hPa 0,0 l/m 7,9 km/h (2 Bft) W-SW 247 1,1 C 2,7 C
17.05.2012 04:06 4,5 C 78 % 1022,2 hPa 0,0 l/m 11,9 km/h (2 Bft) W-SW 247 1,0 C 1,7 C
17.05.2012 04:11 4,5 C 78 % 1022,3 hPa 0,0 l/m 11,5 km/h (2 Bft) W-SW 247 1,0 C 1,7 C
17.05.2012 04:16 4,4 C 78 % 1022,3 hPa 0,0 l/m 4,3 km/h (1 Bft) W-SW 247 0,9 C 4,4 C
17.05.2012 04:21 4,4 C 78 % 1022,3 hPa 0,0 l/m 6,5 km/h (2 Bft) W-SW 247 0,9 C 2,9 C
17.05.2012 04:26 4,4 C 78 % 1022,2 hPa 0,0 l/m 5,8 km/h (2 Bft) W-SW 247 0,9 C 3,1 C
17.05.2012 04:31 4,4 C 78 % 1022,3 hPa 0,0 l/m 4,7 km/h (1 Bft) W 270 0,9 C 3,5 C
17.05.2012 04:36 4,3 C 78 % 1022,3 hPa 0,0 l/m 4,0 km/h (1 Bft) W-NW 292 0,8 C 4,3 C
17.05.2012 04:41 4,3 C 78 % 1022,3 hPa 0,0 l/m 5,0 km/h (1 Bft) W-SW 247 0,8 C 3,3 C
17.05.2012 04:46 4,3 C 79 % 1022,2 hPa 0,0 l/m 6,1 km/h (2 Bft) S-SW 202 1,0 C 2,9 C
17.05.2012 04:51 4,3 C 79 % 1022,1 hPa 0,0 l/m 6,1 km/h (2 Bft) SW 225 1,0 C 2,9 C
17.05.2012 04:56 4,3 C 79 % 1022,1 hPa 0,0 l/m 5,0 km/h (1 Bft) W 270 1,0 C 3,3 C
17.05.2012 05:01 4,2 C 79 % 1022,1 hPa 0,0 l/m 7,2 km/h (2 Bft) W 270 0,9 C 2,4 C
17.05.2012 05:06 4,2 C 79 % 1022,1 hPa 0,0 l/m 3,2 km/h (1 Bft) W 270 0,9 C 4,2 C
17.05.2012 05:11 4,2 C 79 % 1022,2 hPa 0,0 l/m 11,9 km/h (2 Bft) W 270 0,9 C 1,3 C
17.05.2012 05:16 4,2 C 79 % 1022,2 hPa 0,0 l/m 7,2 km/h (2 Bft) SW 225 0,9 C 2,4 C
17.05.2012 05:21 4,2 C 79 % 1022,2 hPa 0,0 l/m 6,1 km/h (2 Bft) W-NW 292 0,9 C 2,8 C
17.05.2012 05:26 4,1 C 79 % 1022,2 hPa 0,0 l/m 7,2 km/h (2 Bft) W 270 0,8 C 2,3 C
17.05.2012 05:31 4,1 C 79 % 1022,2 hPa 0,0 l/m 10,4 km/h (2 Bft) W-SW 247 0,8 C 1,5 C
17.05.2012 05:36 4,1 C 79 % 1022,3 hPa 0,0 l/m 15,8 km/h (3 Bft) W 270 0,8 C 0,5 C
17.05.2012 05:41 4,1 C 79 % 1022,3 hPa 0,0 l/m 14,4 km/h (3 Bft) W-NW 292 0,8 C 0,7 C
17.05.2012 05:46 4,1 C 79 % 1022,3 hPa 0,0 l/m 5,0 km/h (1 Bft) SW 225 0,8 C 3,1 C
17.05.2012 05:51 4,2 C 79 % 1022,4 hPa 0,0 l/m 8,6 km/h (2 Bft) W 270 0,9 C 2,0 C
17.05.2012 05:56 4,4 C 80 % 1022,5 hPa 0,0 l/m 11,5 km/h (2 Bft) W 270 1,3 C 1,6 C
17.05.2012 06:01 4,6 C 80 % 1022,6 hPa 0,0 l/m 9,7 km/h (2 Bft) W-SW 247 1,5 C 2,2 C
17.05.2012 06:06 4,8 C 79 % 1022,6 hPa 0,0 l/m 6,5 km/h (2 Bft) W 270 1,5 C 3,3 C
17.05.2012 06:11 4,9 C 79 % 1022,5 hPa 0,0 l/m 5,0 km/h (1 Bft) W 270 1,6 C 4,0 C
17.05.2012 06:16 5,1 C 78 % 1022,5 hPa 0,0 l/m 12,6 km/h (3 Bft) SW 225 1,6 C 2,3 C
17.05.2012 06:21 5,3 C 78 % 1022,5 hPa 0,0 l/m 7,2 km/h (2 Bft) W 270 1,8 C 3,7 C
17.05.2012 06:26 5,6 C 77 % 1022,4 hPa 0,0 l/m 23,4 km/h (4 Bft) SW 225 1,9 C 1,4 C
17.05.2012 06:31 5,9 C 77 % 1022,5 hPa 0,0 l/m 7,9 km/h (2 Bft) W 270 2,2 C 4,2 C
17.05.2012 06:36 5,9 C 76 % 1022,5 hPa 0,0 l/m 12,6 km/h (3 Bft) W-SW 247 2,0 C 3,2 C
17.05.2012 06:41 6,1 C 75 % 1022,6 hPa 0,0 l/m 6,1 km/h (2 Bft) W 270 2,0 C 5,0 C
17.05.2012 06:46 6,2 C 75 % 1022,6 hPa 0,0 l/m 3,6 km/h (1 Bft) W 270 2,1 C 6,2 C
17.05.2012 06:51 6,2 C 74 % 1022,6 hPa 0,0 l/m 3,6 km/h (1 Bft) W-NW 292 1,9 C 6,2 C
17.05.2012 06:56 6,3 C 74 % 1022,6 hPa 0,0 l/m 19,8 km/h (3 Bft) W-SW 247 2,0 C 2,7 C
17.05.2012 07:01 6,4 C 74 % 1022,6 hPa 0,0 l/m 13,7 km/h (3 Bft) S-SW 202 2,1 C 3,7 C
17.05.2012 07:06 6,5 C 74 % 1022,7 hPa 0,0 l/m 5,8 km/h (2 Bft) W-NW 292 2,2 C 5,5 C
17.05.2012 07:11 6,6 C 74 % 1022,7 hPa 0,0 l/m 8,6 km/h (2 Bft) W 270 2,3 C 4,9 C
17.05.2012 07:16 6,7 C 73 % 1022,8 hPa 0,0 l/m 11,9 km/h (2 Bft) S 180 2,2 C 4,3 C
17.05.2012 07:21 6,9 C 73 % 1022,7 hPa 0,0 l/m 14,4 km/h (3 Bft) SW 225 2,4 C 4,2 C
17.05.2012 07:26 7,1 C 73 % 1022,8 hPa 0,0 l/m 19,8 km/h (3 Bft) W-NW 292 2,6 C 3,7 C
17.05.2012 07:31 7,3 C 72 % 1022,5 hPa 0,0 l/m 14,8 km/h (3 Bft) SW 225 2,6 C 4,6 C
17.05.2012 07:36 7,4 C 72 % 1022,6 hPa 0,0 l/m 14,8 km/h (3 Bft) W-SW 247 2,7 C 4,7 C
17.05.2012 07:41 7,5 C 71 % 1022,6 hPa 0,0 l/m 5,4 km/h (1 Bft) W-NW 292 2,6 C 6,8 C
17.05.2012 07:46 7,6 C 71 % 1022,7 hPa 0,0 l/m 8,3 km/h (2 Bft) W 270 2,7 C 6,1 C
17.05.2012 07:51 7,6 C 71 % 1022,6 hPa 0,0 l/m 17,3 km/h (3 Bft) W-SW 247 2,7 C 4,7 C
17.05.2012 07:56 7,8 C 70 % 1022,7 hPa 0,0 l/m 9,4 km/h (2 Bft) W 270 2,7 C 6,1 C
17.05.2012 08:01 7,9 C 70 % 1022,7 hPa 0,0 l/m 8,3 km/h (2 Bft) SW 225 2,8 C 6,5 C
17.05.2012 08:06 8,1 C 70 % 1022,7 hPa 0,0 l/m 7,6 km/h (2 Bft) W 270 3,0 C 6,9 C
17.05.2012 08:11 8,2 C 69 % 1022,7 hPa 0,0 l/m 18,7 km/h (3 Bft) W 270 2,9 C 5,2 C
17.05.2012 08:16 8,4 C 69 % 1022,8 hPa 0,0 l/m 10,4 km/h (2 Bft) W 270 3,0 C 6,6 C
17.05.2012 08:21 8,5 C 68 % 1022,8 hPa 0,0 l/m 16,2 km/h (3 Bft) W-NW 292 2,9 C 5,9 C
17.05.2012 08:26 8,5 C 67 % 1022,7 hPa 0,0 l/m 4,7 km/h (1 Bft) W 270 2,7 C 8,2 C
17.05.2012 08:31 8,5 C 67 % 1022,8 hPa 0,0 l/m 5,8 km/h (2 Bft) W 270 2,7 C 7,8 C
17.05.2012 08:36 8,7 C 67 % 1022,7 hPa 0,0 l/m 3,2 km/h (1 Bft) W-SW 247 2,9 C 8,7 C
17.05.2012 08:41 8,9 C 67 % 1022,6 hPa 0,0 l/m 10,1 km/h (2 Bft) NW 315 3,1 C 7,3 C
17.05.2012 08:46 9,0 C 67 % 1022,7 hPa 0,0 l/m 23,4 km/h (4 Bft) W-NW 292 3,2 C 5,8 C
17.05.2012 08:51 9,1 C 66 % 1022,7 hPa 0,0 l/m 21,2 km/h (4 Bft) W-SW 247 3,1 C 6,1 C
17.05.2012 08:56 9,3 C 66 % 1022,7 hPa 0,0 l/m 16,9 km/h (3 Bft) W-NW 292 3,3 C 6,8 C
17.05.2012 09:01 9,3 C 64 % 1022,7 hPa 0,0 l/m 15,5 km/h (3 Bft) W-NW 292 2,8 C 7,0 C
17.05.2012 09:06 9,4 C 64 % 1022,8 hPa 0,0 l/m 18,0 km/h (3 Bft) W-NW 292 2,9 C 6,8 C
17.05.2012 09:11 9,5 C 64 % 1022,7 hPa 0,0 l/m 16,6 km/h (3 Bft) W-SW 247 3,0 C 7,1 C
17.05.2012 09:16 9,7 C 64 % 1022,7 hPa 0,0 l/m 6,8 km/h (2 Bft) NW 315 3,2 C 8,9 C
17.05.2012 09:21 9,9 C 64 % 1022,7 hPa 0,0 l/m 15,8 km/h (3 Bft) W-NW 292 3,4 C 7,7 C
17.05.2012 09:26 9,9 C 62 % 1022,6 hPa 0,0 l/m 12,2 km/h (2 Bft) W-NW 292 3,0 C 8,2 C
17.05.2012 09:31 9,8 C 61 % 1022,7 hPa 0,0 l/m 14,4 km/h (3 Bft) W-NW 292 2,6 C 7,7 C
17.05.2012 09:36 9,8 C 61 % 1022,6 hPa 0,0 l/m 11,2 km/h (2 Bft) W-NW 292 2,6 C 8,2 C
17.05.2012 09:41 9,9 C 61 % 1022,6 hPa 0,0 l/m 17,3 km/h (3 Bft) W-NW 292 2,7 C 7,5 C
17.05.2012 09:46 10,1 C 61 % 1022,5 hPa 0,0 l/m 7,6 km/h (2 Bft) W-NW 292 2,9 C 10,1 C
17.05.2012 09:51 10,3 C 61 % 1022,4 hPa 0,0 l/m 10,1 km/h (2 Bft) W 270 3,1 C 10,3 C
17.05.2012 09:56 10,3 C 61 % 1022,6 hPa 0,0 l/m 17,3 km/h (3 Bft) W 270 3,1 C 10,3 C
17.05.2012 10:01 10,4 C 59 % 1022,5 hPa 0,0 l/m 6,1 km/h (2 Bft) W-SW 247 2,7 C 10,4 C
17.05.2012 10:06 10,5 C 60 % 1022,5 hPa 0,0 l/m 10,4 km/h (2 Bft) W 270 3,1 C 10,5 C
17.05.2012 10:11 10,8 C 59 % 1022,4 hPa 0,0 l/m 10,8 km/h (2 Bft) W 270 3,1 C 10,8 C
17.05.2012 10:16 10,5 C 58 % 1022,5 hPa 0,0 l/m 10,1 km/h (2 Bft) SW 225 2,6 C 10,5 C
17.05.2012 10:21 10,4 C 57 % 1022,5 hPa 0,0 l/m 9,0 km/h (2 Bft) W 270 2,3 C 10,4 C
17.05.2012 10:26 10,3 C 58 % 1022,5 hPa 0,0 l/m 11,5 km/h (2 Bft) W 270 2,4 C 10,3 C
17.05.2012 10:31 10,4 C 58 % 1022,4 hPa 0,0 l/m 11,5 km/h (2 Bft) W 270 2,5 C 10,4 C
17.05.2012 10:36 10,4 C 58 % 1022,5 hPa 0,0 l/m 16,6 km/h (3 Bft) W-NW 292 2,5 C 10,4 C
17.05.2012 10:41 10,4 C 58 % 1022,3 hPa 0,0 l/m 6,5 km/h (2 Bft) W-SW 247 2,5 C 10,4 C
17.05.2012 10:46 10,6 C 58 % 1022,4 hPa 0,0 l/m 13,7 km/h (3 Bft) W-NW 292 2,7 C 10,6 C
17.05.2012 10:51 10,7 C 57 % 1022,4 hPa 0,0 l/m 19,1 km/h (3 Bft) W-NW 292 2,5 C 10,7 C
17.05.2012 10:56 10,8 C 56 % 1022,4 hPa 0,0 l/m 14,4 km/h (3 Bft) W 270 2,4 C 10,8 C
17.05.2012 11:01 10,6 C 55 % 1022,4 hPa 0,0 l/m 14,8 km/h (3 Bft) NW 315 1,9 C 10,6 C
17.05.2012 11:06 10,8 C 56 % 1022,3 hPa 0,0 l/m 14,4 km/h (3 Bft) W 270 2,4 C 10,8 C
17.05.2012 11:11 10,9 C 56 % 1022,4 hPa 0,0 l/m 16,6 km/h (3 Bft) NW 315 2,5 C 10,9 C
17.05.2012 11:16 11,2 C 55 % 1022,5 hPa 0,0 l/m 18,4 km/h (3 Bft) W 270 2,5 C 11,2 C
17.05.2012 11:21 11,1 C 55 % 1022,4 hPa 0,0 l/m 11,2 km/h (2 Bft) W-NW 292 2,4 C 11,1 C
17.05.2012 11:26 10,9 C 55 % 1022,4 hPa 0,0 l/m 8,6 km/h (2 Bft) W 270 2,2 C 10,9 C
17.05.2012 11:31 11,0 C 56 % 1022,3 hPa 0,0 l/m 5,0 km/h (1 Bft) W 270 2,6 C 11,0 C
17.05.2012 11:36 11,0 C 55 % 1022,3 hPa 0,0 l/m 10,8 km/h (2 Bft) N-NW 337 2,3 C 11,0 C
17.05.2012 11:41 11,3 C 55 % 1022,2 hPa 0,0 l/m 10,4 km/h (2 Bft) W-NW 292 2,6 C 11,3 C
17.05.2012 11:46 11,3 C 55 % 1022,2 hPa 0,0 l/m 5,0 km/h (1 Bft) N-NW 337 2,6 C 11,3 C
17.05.2012 11:51 10,9 C 55 % 1022,2 hPa 0,0 l/m 13,3 km/h (3 Bft) W 270 2,2 C 10,9 C
17.05.2012 11:56 10,7 C 55 % 1022,3 hPa 0,0 l/m 19,1 km/h (3 Bft) W-SW 247 2,0 C 10,7 C
17.05.2012 12:01 10,6 C 56 % 1022,2 hPa 0,0 l/m 16,6 km/h (3 Bft) W 270 2,2 C 10,6 C
17.05.2012 12:06 11,0 C 57 % 1022,1 hPa 0,0 l/m 8,6 km/h (2 Bft) W-SW 247 2,8 C 11,0 C
17.05.2012 12:11 11,4 C 55 % 1022,0 hPa 0,0 l/m 11,2 km/h (2 Bft) W 270 2,7 C 11,4 C
17.05.2012 12:16 11,4 C 56 % 1022,0 hPa 0,0 l/m 8,6 km/h (2 Bft) S-SW 202 2,9 C 11,4 C
17.05.2012 12:21 11,5 C 55 % 1022,0 hPa 0,0 l/m 10,1 km/h (2 Bft) W 270 2,8 C 11,5 C
17.05.2012 12:26 11,9 C 56 % 1021,9 hPa 0,0 l/m 7,6 km/h (2 Bft) W-SW 247 3,4 C 11,9 C
17.05.2012 12:31 11,9 C 55 % 1022,0 hPa 0,0 l/m 10,4 km/h (2 Bft) W 270 3,2 C 11,9 C
17.05.2012 12:36 11,9 C 54 % 1021,9 hPa 0,0 l/m 14,8 km/h (3 Bft) NW 315 2,9 C 11,9 C
17.05.2012 12:41 12,2 C 53 % 1021,9 hPa 0,0 l/m 24,1 km/h (4 Bft) W 270 2,9 C 12,2 C
17.05.2012 12:46 12,3 C 51 % 1021,9 hPa 0,0 l/m 16,9 km/h (3 Bft) W-NW 292 2,5 C 12,3 C
17.05.2012 12:51 12,1 C 51 % 1022,0 hPa 0,0 l/m 15,8 km/h (3 Bft) W 270 2,3 C 12,1 C
17.05.2012 12:56 11,9 C 51 % 1022,0 hPa 0,0 l/m 10,8 km/h (2 Bft) W-NW 292 2,1 C 11,9 C
17.05.2012 13:01 11,9 C 52 % 1021,9 hPa 0,0 l/m 15,1 km/h (3 Bft) W 270 2,4 C 11,9 C
17.05.2012 13:06 12,2 C 51 % 1021,9 hPa 0,0 l/m 10,8 km/h (2 Bft) W-NW 292 2,4 C 12,2 C
17.05.2012 13:11 12,3 C 51 % 1021,9 hPa 0,0 l/m 11,9 km/h (2 Bft) W-NW 292 2,5 C 12,3 C
17.05.2012 13:16 12,8 C 50 % 1021,9 hPa 0,0 l/m 6,8 km/h (2 Bft) W 270 2,6 C 12,8 C
17.05.2012 13:21 13,2 C 50 % 1021,9 hPa 0,0 l/m 7,6 km/h (2 Bft) W 270 3,0 C 13,2 C
17.05.2012 13:26 13,6 C 50 % 1021,8 hPa 0,0 l/m 5,0 km/h (1 Bft) NW 315 3,4 C 13,6 C
17.05.2012 13:31 13,9 C 48 % 1021,7 hPa 0,0 l/m 3,6 km/h (1 Bft) W-SW 247 3,1 C 13,9 C
17.05.2012 13:36 13,9 C 48 % 1021,8 hPa 0,0 l/m 19,8 km/h (3 Bft) W-NW 292 3,1 C 13,9 C
17.05.2012 13:41 13,5 C 49 % 1021,8 hPa 0,0 l/m 21,2 km/h (4 Bft) SW 225 3,0 C 13,5 C
17.05.2012 13:46 13,6 C 49 % 1021,8 hPa 0,0 l/m 15,1 km/h (3 Bft) W-NW 292 3,1 C 13,6 C
17.05.2012 13:51 13,8 C 48 % 1021,8 hPa 0,0 l/m 9,0 km/h (2 Bft) W-NW 292 3,0 C 13,8 C
17.05.2012 13:56 13,4 C 47 % 1021,8 hPa 0,0 l/m 12,2 km/h (2 Bft) N 360 2,3 C 13,4 C
17.05.2012 14:01 13,1 C 47 % 1021,8 hPa 0,0 l/m 11,2 km/h (2 Bft) W-NW 292 2,0 C 13,1 C
17.05.2012 14:06 12,8 C 49 % 1021,8 hPa 0,0 l/m 6,8 km/h (2 Bft) W-NW 292 2,4 C 12,8 C
17.05.2012 14:11 12,6 C 49 % 1022,1 hPa 0,0 l/m 24,1 km/h (4 Bft) W-NW 292 2,2 C 12,6 C
17.05.2012 14:16 12,8 C 49 % 1022,0 hPa 0,0 l/m 13,3 km/h (3 Bft) W-NW 292 2,4 C 12,8 C
17.05.2012 14:21 12,9 C 48 % 1021,9 hPa 0,0 l/m 15,5 km/h (3 Bft) NW 315 2,2 C 12,9 C
17.05.2012 14:26 13,2 C 49 % 1021,9 hPa 0,0 l/m 5,8 km/h (2 Bft) W-SW 247 2,7 C 13,2 C
17.05.2012 14:31 13,4 C 48 % 1021,8 hPa 0,0 l/m 19,4 km/h (3 Bft) S-SW 202 2,6 C 13,4 C
17.05.2012 14:36 13,4 C 48 % 1021,8 hPa 0,0 l/m 11,5 km/h (2 Bft) NW 315 2,6 C 13,4 C
17.05.2012 14:41 13,3 C 50 % 1022,0 hPa 0,0 l/m 14,0 km/h (3 Bft) W-NW 292 3,1 C 13,3 C
17.05.2012 14:46 13,2 C 49 % 1021,8 hPa 0,0 l/m 11,2 km/h (2 Bft) W 270 2,7 C 13,2 C
17.05.2012 14:51 13,0 C 49 % 1021,9 hPa 0,0 l/m 6,5 km/h (2 Bft) W 270 2,5 C 13,0 C
17.05.2012 14:56 12,9 C 48 % 1021,8 hPa 0,0 l/m 8,3 km/h (2 Bft) W 270 2,2 C 12,9 C
17.05.2012 15:01 12,9 C 49 % 1021,9 hPa 0,0 l/m 9,7 km/h (2 Bft) W-NW 292 2,5 C 12,9 C
17.05.2012 15:06 13,1 C 49 % 1022,0 hPa 0,0 l/m 9,7 km/h (2 Bft) NW 315 2,6 C 13,1 C
17.05.2012 15:11 13,2 C 49 % 1021,9 hPa 0,0 l/m 13,0 km/h (3 Bft) W 270 2,7 C 13,2 C
17.05.2012 15:16 13,6 C 49 % 1021,8 hPa 0,0 l/m 6,5 km/h (2 Bft) N 360 3,1 C 13,6 C
17.05.2012 15:21 13,9 C 48 % 1021,8 hPa 0,0 l/m 15,5 km/h (3 Bft) N-NW 337 3,1 C 13,9 C
17.05.2012 15:26 13,9 C 48 % 1021,8 hPa 0,0 l/m 5,4 km/h (1 Bft) NW 315 3,1 C 13,9 C
17.05.2012 15:31 13,8 C 47 % 1021,8 hPa 0,0 l/m 7,2 km/h (2 Bft) W 270 2,7 C 13,8 C
17.05.2012 15:36 13,8 C 48 % 1021,8 hPa 0,0 l/m 22,3 km/h (4 Bft) W 270 3,0 C 13,8 C
17.05.2012 15:41 13,8 C 48 % 1021,8 hPa 0,0 l/m 8,3 km/h (2 Bft) NW 315 3,0 C 13,8 C
17.05.2012 15:46 13,9 C 48 % 1021,8 hPa 0,0 l/m 9,7 km/h (2 Bft) NW 315 3,1 C 13,9 C
17.05.2012 15:51 14,0 C 48 % 1021,8 hPa 0,0 l/m 8,6 km/h (2 Bft) W 270 3,2 C 14,0 C
17.05.2012 15:56 13,8 C 48 % 1021,8 hPa 0,0 l/m 12,6 km/h (3 Bft) NW 315 3,0 C 13,8 C
17.05.2012 16:01 13,6 C 48 % 1021,8 hPa 0,0 l/m 8,6 km/h (2 Bft) W-NW 292 2,8 C 13,6 C
17.05.2012 16:06 13,4 C 48 % 1021,7 hPa 0,0 l/m 6,8 km/h (2 Bft) W 270 2,6 C 13,4 C
17.05.2012 16:11 13,3 C 49 % 1021,6 hPa 0,0 l/m 7,6 km/h (2 Bft) W-NW 292 2,8 C 13,3 C
17.05.2012 16:16 13,1 C 50 % 1021,6 hPa 0,0 l/m 8,3 km/h (2 Bft) W 270 2,9 C 13,1 C
17.05.2012 16:21 13,1 C 50 % 1021,6 hPa 0,0 l/m 4,0 km/h (1 Bft) W-NW 292 2,9 C 13,1 C
17.05.2012 16:26 13,0 C 50 % 1021,6 hPa 0,0 l/m 2,9 km/h (1 Bft) W-SW 247 2,8 C 13,0 C
17.05.2012 16:31 13,0 C 50 % 1021,5 hPa 0,0 l/m 7,2 km/h (2 Bft) W-SW 247 2,8 C 13,0 C
17.05.2012 16:36 13,1 C 50 % 1021,4 hPa 0,0 l/m 3,2 km/h (1 Bft) W-NW 292 2,9 C 13,1 C
17.05.2012 16:41 13,0 C 50 % 1021,4 hPa 0,0 l/m 15,5 km/h (3 Bft) W-NW 292 2,8 C 13,0 C
17.05.2012 16:46 12,9 C 50 % 1021,3 hPa 0,0 l/m 5,8 km/h (2 Bft) W 270 2,7 C 12,9 C
17.05.2012 16:51 13,0 C 51 % 1021,3 hPa 0,0 l/m 8,3 km/h (2 Bft) NW 315 3,1 C 13,0 C
17.05.2012 16:56 13,1 C 50 % 1021,2 hPa 0,0 l/m 12,6 km/h (3 Bft) W-NW 292 2,9 C 13,1 C
17.05.2012 17:01 13,3 C 51 % 1021,3 hPa 0,0 l/m 4,0 km/h (1 Bft) W-NW 292 3,4 C 13,3 C
17.05.2012 17:06 13,4 C 51 % 1021,2 hPa 0,0 l/m 5,4 km/h (1 Bft) W 270 3,5 C 13,4 C
17.05.2012 17:11 13,6 C 51 % 1021,2 hPa 0,0 l/m 3,6 km/h (1 Bft) W 270 3,7 C 13,6 C
17.05.2012 17:16 13,7 C 50 % 1021,1 hPa 0,0 l/m 4,0 km/h (1 Bft) W-SW 247 3,5 C 13,7 C
17.05.2012 17:21 13,8 C 50 % 1021,2 hPa 0,0 l/m 2,9 km/h (1 Bft) N-NW 337 3,6 C 13,8 C
17.05.2012 17:26 13,8 C 50 % 1021,1 hPa 0,0 l/m 3,2 km/h (1 Bft) NW 315 3,6 C 13,8 C
17.05.2012 17:31 13,9 C 50 % 1021,1 hPa 0,0 l/m 2,9 km/h (1 Bft) W-SW 247 3,7 C 13,9 C
17.05.2012 17:36 14,3 C 50 % 1021,0 hPa 0,0 l/m 0,0 km/h (0 Bft) W-NW 292 4,0 C 14,3 C
17.05.2012 17:41 14,3 C 49 % 1021,0 hPa 0,0 l/m 3,6 km/h (1 Bft) W 270 3,7 C 14,3 C
17.05.2012 17:46 14,3 C 49 % 1021,0 hPa 0,0 l/m 10,1 km/h (2 Bft) W-SW 247 3,7 C 14,3 C
17.05.2012 17:51 14,2 C 49 % 1020,9 hPa 0,0 l/m 6,8 km/h (2 Bft) W 270 3,6 C 14,2 C
17.05.2012 17:56 13,9 C 49 % 1020,8 hPa 0,0 l/m 3,2 km/h (1 Bft) W 270 3,4 C 13,9 C
17.05.2012 18:01 13,9 C 49 % 1020,7 hPa 0,0 l/m 2,9 km/h (1 Bft) W-NW 292 3,4 C 13,9 C
17.05.2012 18:06 14,3 C 49 % 1020,7 hPa 0,0 l/m 2,9 km/h (1 Bft) NW 315 3,7 C 14,3 C
17.05.2012 18:11 14,4 C 49 % 1020,6 hPa 0,0 l/m 3,6 km/h (1 Bft) NW 315 3,8 C 14,4 C
17.05.2012 18:16 14,2 C 47 % 1020,6 hPa 0,0 l/m 0,0 km/h (0 Bft) N 360 3,1 C 14,2 C
17.05.2012 18:21 14,3 C 47 % 1020,6 hPa 0,0 l/m 7,9 km/h (2 Bft) W-NW 292 3,1 C 14,3 C
17.05.2012 18:26 14,6 C 47 % 1020,5 hPa 0,0 l/m 10,1 km/h (2 Bft) N-NW 337 3,4 C 14,6 C
17.05.2012 18:31 14,6 C 45 % 1020,6 hPa 0,0 l/m 2,5 km/h (1 Bft) W 270 2,8 C 14,6 C
17.05.2012 18:36 14,6 C 46 % 1020,5 hPa 0,0 l/m 8,6 km/h (2 Bft) W-NW 292 3,1 C 14,6 C
17.05.2012 18:41 14,3 C 46 % 1020,5 hPa 0,0 l/m 9,7 km/h (2 Bft) NW 315 2,8 C 14,3 C
17.05.2012 18:46 14,1 C 47 % 1020,6 hPa 0,0 l/m 6,5 km/h (2 Bft) W-NW 292 3,0 C 14,1 C
17.05.2012 18:51 13,9 C 47 % 1020,5 hPa 0,0 l/m 2,9 km/h (1 Bft) W-SW 247 2,8 C 13,9 C
17.05.2012 18:56 13,8 C 48 % 1020,5 hPa 0,0 l/m 1,4 km/h (1 Bft) SW 225 3,0 C 13,8 C
17.05.2012 19:01 13,8 C 48 % 1020,5 hPa 0,0 l/m 0,0 km/h (0 Bft) W 270 3,0 C 13,8 C
17.05.2012 19:06 13,6 C 48 % 1020,4 hPa 0,0 l/m 0,0 km/h (0 Bft) W-NW 292 2,8 C 13,6 C
17.05.2012 19:11 13,8 C 49 % 1020,4 hPa 0,0 l/m 1,1 km/h (1 Bft) W 270 3,3 C 13,8 C
17.05.2012 19:16 13,8 C 49 % 1020,4 hPa 0,0 l/m 0,0 km/h (0 Bft) W-NW 292 3,3 C 13,8 C
17.05.2012 19:21 13,6 C 49 % 1020,5 hPa 0,0 l/m 0,0 km/h (0 Bft) W-NW 292 3,1 C 13,6 C
17.05.2012 19:26 13,6 C 49 % 1020,4 hPa 0,0 l/m 0,0 km/h (0 Bft) W 270 3,1 C 13,6 C
17.05.2012 19:31 13,8 C 49 % 1020,4 hPa 0,0 l/m 2,9 km/h (1 Bft) W-NW 292 3,3 C 13,8 C
17.05.2012 19:36 13,9 C 49 % 1020,4 hPa 0,0 l/m 0,0 km/h (0 Bft) W 270 3,4 C 13,9 C
17.05.2012 19:41 13,9 C 49 % 1020,4 hPa 0,0 l/m 0,0 km/h (0 Bft) W-NW 292 3,4 C 13,9 C
17.05.2012 19:46 13,9 C 49 % 1020,4 hPa 0,0 l/m 9,7 km/h (2 Bft) NW 315 3,4 C 13,9 C
17.05.2012 19:51 13,9 C 49 % 1020,4 hPa 0,0 l/m 0,0 km/h (0 Bft) W-SW 247 3,4 C 13,9 C
17.05.2012 19:56 13,9 C 49 % 1020,4 hPa 0,0 l/m 4,0 km/h (1 Bft) W-SW 247 3,4 C 13,9 C
17.05.2012 20:01 13,9 C 48 % 1020,3 hPa 0,0 l/m 6,1 km/h (2 Bft) W-SW 247 3,1 C 13,9 C
17.05.2012 20:06 13,8 C 48 % 1020,3 hPa 0,0 l/m 2,2 km/h (1 Bft) SW 225 3,0 C 13,8 C
17.05.2012 20:11 13,7 C 49 % 1020,2 hPa 0,0 l/m 2,5 km/h (1 Bft) W-SW 247 3,2 C 13,7 C
17.05.2012 20:16 13,6 C 49 % 1020,2 hPa 0,0 l/m 3,2 km/h (1 Bft) W-SW 247 3,1 C 13,6 C
17.05.2012 20:21 13,4 C 49 % 1020,3 hPa 0,0 l/m 2,5 km/h (1 Bft) W-SW 247 2,9 C 13,4 C
17.05.2012 20:26 13,3 C 50 % 1020,1 hPa 0,0 l/m 0,0 km/h (0 Bft) W 270 3,1 C 13,3 C
17.05.2012 20:31 13,1 C 50 % 1020,1 hPa 0,0 l/m 0,0 km/h (0 Bft) W-SW 247 2,9 C 13,1 C
17.05.2012 20:36 12,9 C 51 % 1020,1 hPa 0,0 l/m 0,0 km/h (0 Bft) W-SW 247 3,0 C 12,9 C
17.05.2012 20:41 12,8 C 52 % 1020,0 hPa 0,0 l/m 0,0 km/h (0 Bft) SW 225 3,2 C 12,8 C
17.05.2012 20:46 12,7 C 52 % 1020,1 hPa 0,0 l/m 0,0 km/h (0 Bft) SW 225 3,1 C 12,7 C
17.05.2012 20:51 12,5 C 53 % 1020,1 hPa 0,0 l/m 0,0 km/h (0 Bft) SW 225 3,2 C 12,5 C
17.05.2012 20:56 12,3 C 54 % 1020,1 hPa 0,0 l/m 0,0 km/h (0 Bft) SW 225 3,3 C 12,3 C
17.05.2012 21:01 12,1 C 55 % 1020,0 hPa 0,0 l/m 0,0 km/h (0 Bft) SW 225 3,3 C 12,1 C
17.05.2012 21:06 11,9 C 56 % 1020,0 hPa 0,0 l/m 0,0 km/h (0 Bft) SW 225 3,4 C 11,9 C
17.05.2012 21:11 11,8 C 56 % 1020,1 hPa 0,0 l/m 0,0 km/h (0 Bft) SW 225 3,3 C 11,8 C
17.05.2012 21:16 11,6 C 57 % 1020,1 hPa 0,0 l/m 0,0 km/h (0 Bft) SW 225 3,4 C 11,6 C
17.05.2012 21:21 11,4 C 57 % 1020,0 hPa 0,0 l/m 1,8 km/h (1 Bft) SW 225 3,2 C 11,4 C
17.05.2012 21:26 11,3 C 58 % 1020,0 hPa 0,0 l/m 0,0 km/h (0 Bft) SW 225 3,3 C 11,3 C
17.05.2012 21:31 11,1 C 58 % 1020,0 hPa 0,0 l/m 0,0 km/h (0 Bft) SW 225 3,2 C 11,1 C
17.05.2012 21:36 10,9 C 59 % 1020,0 hPa 0,0 l/m 0,0 km/h (0 Bft) SW 225 3,2 C 10,9 C
17.05.2012 21:41 10,8 C 59 % 1020,0 hPa 0,0 l/m 0,0 km/h (0 Bft) SO 135 3,1 C 10,8 C
17.05.2012 21:46 10,7 C 60 % 1019,8 hPa 0,0 l/m 1,8 km/h (1 Bft) SO 135 3,3 C 10,7 C
17.05.2012 21:51 10,5 C 60 % 1019,8 hPa 0,0 l/m 2,2 km/h (1 Bft) SO 135 3,1 C 10,5 C
17.05.2012 21:56 10,4 C 61 % 1019,8 hPa 0,0 l/m 0,0 km/h (0 Bft) SO 135 3,2 C 10,4 C
17.05.2012 22:01 10,2 C 61 % 1019,6 hPa 0,0 l/m 0,0 km/h (0 Bft) SO 135 3,0 C 10,2 C
17.05.2012 22:06 10,0 C 61 % 1019,8 hPa 0,0 l/m 0,0 km/h (0 Bft) SO 135 2,8 C 10,0 C
17.05.2012 22:11 9,8 C 61 % 1019,7 hPa 0,0 l/m 0,0 km/h (0 Bft) SO 135 2,6 C 9,8 C
17.05.2012 22:16 9,6 C 62 % 1019,7 hPa 0,0 l/m 0,0 km/h (0 Bft) SO 135 2,7 C 9,6 C
17.05.2012 22:21 9,5 C 63 % 1019,7 hPa 0,0 l/m 0,0 km/h (0 Bft) SO 135 2,8 C 9,5 C
17.05.2012 22:26 9,3 C 63 % 1019,6 hPa 0,0 l/m 0,0 km/h (0 Bft) SO 135 2,6 C 9,3 C
17.05.2012 22:31 9,2 C 63 % 1019,7 hPa 0,0 l/m 0,0 km/h (0 Bft) SO 135 2,5 C 9,2 C
17.05.2012 22:36 9,0 C 63 % 1019,6 hPa 0,0 l/m 0,0 km/h (0 Bft) SO 135 2,3 C 9,0 C
17.05.2012 22:41 9,0 C 64 % 1019,7 hPa 0,0 l/m 0,0 km/h (0 Bft) SO 135 2,6 C 9,0 C
17.05.2012 22:46 8,9 C 65 % 1019,7 hPa 0,0 l/m 0,0 km/h (0 Bft) SO 135 2,7 C 8,9 C
17.05.2012 22:51 8,9 C 65 % 1019,7 hPa 0,0 l/m 0,0 km/h (0 Bft) SO 135 2,7 C 8,9 C
17.05.2012 22:56 8,8 C 65 % 1019,6 hPa 0,0 l/m 0,0 km/h (0 Bft) SO 135 2,6 C 8,8 C
17.05.2012 23:01 8,8 C 66 % 1019,7 hPa 0,0 l/m 0,0 km/h (0 Bft) SO 135 2,8 C 8,8 C
17.05.2012 23:06 8,8 C 66 % 1019,6 hPa 0,0 l/m 1,1 km/h (1 Bft) SO 135 2,8 C 8,8 C
17.05.2012 23:11 8,7 C 66 % 1019,7 hPa 0,0 l/m 0,0 km/h (0 Bft) SO 135 2,7 C 8,7 C
17.05.2012 23:16 8,6 C 66 % 1019,6 hPa 0,0 l/m 0,0 km/h (0 Bft) SO 135 2,6 C 8,6 C
17.05.2012 23:21 8,5 C 66 % 1019,6 hPa 0,0 l/m 0,0 km/h (0 Bft) SO 135 2,5 C 8,5 C
17.05.2012 23:26 8,5 C 66 % 1019,6 hPa 0,0 l/m 0,0 km/h (0 Bft) SO 135 2,5 C 8,5 C
17.05.2012 23:31 8,4 C 67 % 1019,5 hPa 0,0 l/m 0,0 km/h (0 Bft) SO 135 2,6 C 8,4 C
17.05.2012 23:36 8,4 C 67 % 1019,3 hPa 0,0 l/m 1,1 km/h (1 Bft) SO 135 2,6 C 8,4 C
17.05.2012 23:41 8,3 C 68 % 1019,4 hPa 0,0 l/m 1,8 km/h (1 Bft) O-SO 112 2,7 C 8,3 C
17.05.2012 23:46 8,2 C 68 % 1019,2 hPa 0,0 l/m 0,0 km/h (0 Bft) O-SO 112 2,7 C 8,2 C
17.05.2012 23:51 8,1 C 69 % 1019,2 hPa 0,0 l/m 0,0 km/h (0 Bft) SO 135 2,8 C 8,1 C
17.05.2012 23:56 7,9 C 69 % 1019,1 hPa 0,0 l/m 0,0 km/h (0 Bft) O-SO 112 2,6 C 7,9 C
_ Min-Zeit 05:26 18:31 23:56 - 17:36 - - 05:26 05:36
Minimum _ 4,1 C 45 % 1019,1 hPa - 0,0 km/h (0 Bft) - - 0,8 C 0,5 C
_ Max-Zeit 18:26 05:56 07:16 00:01 12:41 - - 17:36 18:26
Maximum _ 14,6 C 80 % 1022,8 hPa 0,0 l/m 24,1 km/h
W (4 Bft)
- - 4,0 C 14,6 C
Durchschnitt _ 9,7 C 62 % 1021,6 hPa #0,0 l/m 8,0 km/h (2 Bft) W - 2,4 C 8,9 C
(c) by David Heller